sensor_id;sensor_type;location;lat;lon;timestamp;P1;durP1;ratioP1;P2;durP2;ratioP2
64641;SDS011;59936;51.490;5.436;2023-10-09T00:00:14;45.60;;;23.70;;
64641;SDS011;59936;51.490;5.436;2023-10-09T00:05:50;53.20;;;23.60;;
64641;SDS011;59936;51.490;5.436;2023-10-09T00:08:20;50.80;;;23.90;;
64641;SDS011;59936;51.490;5.436;2023-10-09T00:10:49;50.70;;;23.90;;
64641;SDS011;59936;51.490;5.436;2023-10-09T00:13:18;51.10;;;24.50;;
64641;SDS011;59936;51.490;5.436;2023-10-09T00:15:51;52.20;;;27.20;;
64641;SDS011;59936;51.490;5.436;2023-10-09T00:18:19;54.20;;;26.30;;
64641;SDS011;59936;51.490;5.436;2023-10-09T00:20:48;58.70;;;27.30;;
64641;SDS011;59936;51.490;5.436;2023-10-09T00:23:17;48.60;;;25.40;;
64641;SDS011;59936;51.490;5.436;2023-10-09T00:25:51;50.40;;;26.40;;
64641;SDS011;59936;51.490;5.436;2023-10-09T00:28:20;48.70;;;24.20;;
64641;SDS011;59936;51.490;5.436;2023-10-09T00:30:48;45.70;;;25.00;;
64641;SDS011;59936;51.490;5.436;2023-10-09T00:33:17;41.70;;;23.20;;
64641;SDS011;59936;51.490;5.436;2023-10-09T00:35:45;38.00;;;21.80;;
64641;SDS011;59936;51.490;5.436;2023-10-09T00:38:14;34.40;;;21.60;;
64641;SDS011;59936;51.490;5.436;2023-10-09T00:40:43;30.40;;;19.10;;
64641;SDS011;59936;51.490;5.436;2023-10-09T00:43:11;31.80;;;19.70;;
64641;SDS011;59936;51.490;5.436;2023-10-09T00:45:44;28.80;;;18.10;;
64641;SDS011;59936;51.490;5.436;2023-10-09T00:48:14;29.60;;;18.80;;
64641;SDS011;59936;51.490;5.436;2023-10-09T00:50:42;29.70;;;17.90;;
64641;SDS011;59936;51.490;5.436;2023-10-09T00:53:11;27.30;;;18.40;;
64641;SDS011;59936;51.490;5.436;2023-10-09T00:55:40;27.50;;;17.40;;
64641;SDS011;59936;51.490;5.436;2023-10-09T00:58:10;24.40;;;16.60;;
64641;SDS011;59936;51.490;5.436;2023-10-09T01:00:41;27.20;;;16.30;;
64641;SDS011;59936;51.490;5.436;2023-10-09T01:03:11;20.40;;;15.20;;
64641;SDS011;59936;51.490;5.436;2023-10-09T01:05:42;25.70;;;16.40;;
64641;SDS011;59936;51.490;5.436;2023-10-09T01:08:15;24.50;;;16.40;;
64641;SDS011;59936;51.490;5.436;2023-10-09T01:10:47;21.30;;;16.10;;
64641;SDS011;59936;51.490;5.436;2023-10-09T01:13:16;25.00;;;15.70;;
64641;SDS011;59936;51.490;5.436;2023-10-09T01:15:44;20.40;;;15.00;;
64641;SDS011;59936;51.490;5.436;2023-10-09T01:18:13;23.00;;;15.40;;
64641;SDS011;59936;51.490;5.436;2023-10-09T01:20:42;21.60;;;15.30;;
64641;SDS011;59936;51.490;5.436;2023-10-09T01:23:11;25.80;;;16.30;;
64641;SDS011;59936;51.490;5.436;2023-10-09T01:25:40;24.20;;;15.20;;
64641;SDS011;59936;51.490;5.436;2023-10-09T01:28:09;21.50;;;14.80;;
64641;SDS011;59936;51.490;5.436;2023-10-09T01:30:38;23.40;;;15.90;;
64641;SDS011;59936;51.490;5.436;2023-10-09T01:33:07;21.50;;;15.20;;
64641;SDS011;59936;51.490;5.436;2023-10-09T01:35:36;24.30;;;14.10;;
64641;SDS011;59936;51.490;5.436;2023-10-09T01:38:05;22.20;;;14.70;;
64641;SDS011;59936;51.490;5.436;2023-10-09T01:40:34;19.20;;;13.50;;
64641;SDS011;59936;51.490;5.436;2023-10-09T01:43:02;21.80;;;14.60;;
64641;SDS011;59936;51.490;5.436;2023-10-09T01:45:31;21.00;;;14.60;;
64641;SDS011;59936;51.490;5.436;2023-10-09T01:47:59;21.30;;;14.60;;
64641;SDS011;59936;51.490;5.436;2023-10-09T01:50:28;24.10;;;15.80;;
64641;SDS011;59936;51.490;5.436;2023-10-09T01:52:57;21.50;;;14.30;;
64641;SDS011;59936;51.490;5.436;2023-10-09T01:55:25;20.90;;;14.10;;
64641;SDS011;59936;51.490;5.436;2023-10-09T01:57:54;20.60;;;15.30;;
64641;SDS011;59936;51.490;5.436;2023-10-09T02:00:23;21.90;;;14.40;;
64641;SDS011;59936;51.490;5.436;2023-10-09T02:02:52;18.80;;;14.80;;
64641;SDS011;59936;51.490;5.436;2023-10-09T02:05:21;19.20;;;14.00;;
64641;SDS011;59936;51.490;5.436;2023-10-09T02:07:49;21.20;;;14.50;;
64641;SDS011;59936;51.490;5.436;2023-10-09T02:10:20;20.10;;;13.60;;
64641;SDS011;59936;51.490;5.436;2023-10-09T02:12:51;19.70;;;13.90;;
64641;SDS011;59936;51.490;5.436;2023-10-09T02:15:21;21.60;;;14.30;;
64641;SDS011;59936;51.490;5.436;2023-10-09T02:17:50;20.90;;;14.60;;
64641;SDS011;59936;51.490;5.436;2023-10-09T02:20:18;18.40;;;14.40;;
64641;SDS011;59936;51.490;5.436;2023-10-09T02:22:47;21.50;;;14.50;;
64641;SDS011;59936;51.490;5.436;2023-10-09T02:25:15;18.80;;;12.80;;
64641;SDS011;59936;51.490;5.436;2023-10-09T02:27:44;20.10;;;14.60;;
64641;SDS011;59936;51.490;5.436;2023-10-09T02:30:12;19.80;;;13.60;;
64641;SDS011;59936;51.490;5.436;2023-10-09T02:32:42;20.30;;;13.90;;
64641;SDS011;59936;51.490;5.436;2023-10-09T02:35:11;21.40;;;14.60;;
64641;SDS011;59936;51.490;5.436;2023-10-09T02:37:39;21.20;;;14.10;;
64641;SDS011;59936;51.490;5.436;2023-10-09T02:40:08;20.50;;;14.70;;
64641;SDS011;59936;51.490;5.436;2023-10-09T02:42:37;20.80;;;13.50;;
64641;SDS011;59936;51.490;5.436;2023-10-09T02:45:06;24.90;;;14.40;;
64641;SDS011;59936;51.490;5.436;2023-10-09T02:47:35;22.70;;;14.40;;
64641;SDS011;59936;51.490;5.436;2023-10-09T02:50:04;20.30;;;13.80;;
64641;SDS011;59936;51.490;5.436;2023-10-09T02:52:34;20.60;;;14.50;;
64641;SDS011;59936;51.490;5.436;2023-10-09T02:55:02;18.00;;;13.50;;
64641;SDS011;59936;51.490;5.436;2023-10-09T02:57:31;25.90;;;14.60;;
64641;SDS011;59936;51.490;5.436;2023-10-09T03:00:00;20.40;;;13.60;;
64641;SDS011;59936;51.490;5.436;2023-10-09T03:02:28;25.10;;;14.80;;
64641;SDS011;59936;51.490;5.436;2023-10-09T03:04:57;17.90;;;13.00;;
64641;SDS011;59936;51.490;5.436;2023-10-09T03:07:26;23.20;;;14.20;;
64641;SDS011;59936;51.490;5.436;2023-10-09T03:09:54;23.70;;;14.30;;
64641;SDS011;59936;51.490;5.436;2023-10-09T03:12:23;20.20;;;12.80;;
64641;SDS011;59936;51.490;5.436;2023-10-09T03:14:51;21.10;;;14.70;;
64641;SDS011;59936;51.490;5.436;2023-10-09T03:17:20;18.60;;;13.30;;
64641;SDS011;59936;51.490;5.436;2023-10-09T03:19:49;22.30;;;14.20;;
64641;SDS011;59936;51.490;5.436;2023-10-09T03:22:17;27.20;;;15.00;;
64641;SDS011;59936;51.490;5.436;2023-10-09T03:24:46;19.90;;;14.40;;
64641;SDS011;59936;51.490;5.436;2023-10-09T03:27:14;21.40;;;14.80;;
64641;SDS011;59936;51.490;5.436;2023-10-09T03:29:43;19.60;;;15.00;;
64641;SDS011;59936;51.490;5.436;2023-10-09T03:32:12;23.20;;;15.50;;
64641;SDS011;59936;51.490;5.436;2023-10-09T03:34:40;21.00;;;14.10;;
64641;SDS011;59936;51.490;5.436;2023-10-09T03:37:09;20.50;;;14.60;;
64641;SDS011;59936;51.490;5.436;2023-10-09T03:39:37;21.10;;;13.70;;
64641;SDS011;59936;51.490;5.436;2023-10-09T03:42:06;19.60;;;13.80;;
64641;SDS011;59936;51.490;5.436;2023-10-09T03:44:35;23.00;;;14.40;;
64641;SDS011;59936;51.490;5.436;2023-10-09T03:47:04;21.60;;;14.50;;
64641;SDS011;59936;51.490;5.436;2023-10-09T03:49:32;20.80;;;14.80;;
64641;SDS011;59936;51.490;5.436;2023-10-09T03:52:01;20.80;;;14.60;;
64641;SDS011;59936;51.490;5.436;2023-10-09T03:54:29;21.80;;;15.00;;
64641;SDS011;59936;51.490;5.436;2023-10-09T03:56:58;21.00;;;13.40;;
64641;SDS011;59936;51.490;5.436;2023-10-09T03:59:27;26.10;;;15.20;;
64641;SDS011;59936;51.490;5.436;2023-10-09T04:01:56;22.70;;;15.20;;
64641;SDS011;59936;51.490;5.436;2023-10-09T04:04:25;23.20;;;13.70;;
64641;SDS011;59936;51.490;5.436;2023-10-09T04:06:53;27.80;;;15.00;;
64641;SDS011;59936;51.490;5.436;2023-10-09T04:09:22;19.00;;;13.70;;
64641;SDS011;59936;51.490;5.436;2023-10-09T04:11:51;18.90;;;14.40;;
64641;SDS011;59936;51.490;5.436;2023-10-09T04:14:21;18.00;;;14.00;;
64641;SDS011;59936;51.490;5.436;2023-10-09T04:16:50;25.90;;;15.60;;
64641;SDS011;59936;51.490;5.436;2023-10-09T04:19:18;23.20;;;14.40;;
64641;SDS011;59936;51.490;5.436;2023-10-09T04:21:47;20.90;;;15.00;;
64641;SDS011;59936;51.490;5.436;2023-10-09T04:24:16;23.20;;;15.70;;
64641;SDS011;59936;51.490;5.436;2023-10-09T04:26:45;22.20;;;14.90;;
64641;SDS011;59936;51.490;5.436;2023-10-09T04:29:14;20.60;;;14.60;;
64641;SDS011;59936;51.490;5.436;2023-10-09T04:31:45;21.00;;;14.00;;
64641;SDS011;59936;51.490;5.436;2023-10-09T04:34:14;22.00;;;15.70;;
64641;SDS011;59936;51.490;5.436;2023-10-09T04:36:42;21.90;;;14.20;;
64641;SDS011;59936;51.490;5.436;2023-10-09T04:39:11;25.60;;;15.50;;
64641;SDS011;59936;51.490;5.436;2023-10-09T04:41:40;18.80;;;12.60;;
64641;SDS011;59936;51.490;5.436;2023-10-09T04:44:09;23.20;;;15.60;;
64641;SDS011;59936;51.490;5.436;2023-10-09T04:46:38;24.00;;;14.90;;
64641;SDS011;59936;51.490;5.436;2023-10-09T04:49:06;21.30;;;14.80;;
64641;SDS011;59936;51.490;5.436;2023-10-09T04:51:35;20.60;;;15.20;;
64641;SDS011;59936;51.490;5.436;2023-10-09T04:54:03;32.90;;;17.70;;
64641;SDS011;59936;51.490;5.436;2023-10-09T04:56:32;24.00;;;16.40;;
64641;SDS011;59936;51.490;5.436;2023-10-09T04:59:01;24.00;;;15.60;;
64641;SDS011;59936;51.490;5.436;2023-10-09T05:01:30;22.30;;;16.10;;
64641;SDS011;59936;51.490;5.436;2023-10-09T05:03:58;23.30;;;15.90;;
64641;SDS011;59936;51.490;5.436;2023-10-09T05:06:27;20.90;;;15.50;;
64641;SDS011;59936;51.490;5.436;2023-10-09T05:08:56;23.40;;;15.30;;
64641;SDS011;59936;51.490;5.436;2023-10-09T05:11:24;23.00;;;15.90;;
64641;SDS011;59936;51.490;5.436;2023-10-09T05:13:53;24.60;;;15.90;;
64641;SDS011;59936;51.490;5.436;2023-10-09T05:16:22;25.50;;;16.30;;
64641;SDS011;59936;51.490;5.436;2023-10-09T05:18:51;21.20;;;15.50;;
64641;SDS011;59936;51.490;5.436;2023-10-09T05:21:31;25.90;;;16.90;;
64641;SDS011;59936;51.490;5.436;2023-10-09T05:24:03;23.30;;;16.30;;
64641;SDS011;59936;51.490;5.436;2023-10-09T05:26:32;25.30;;;16.15;;
64641;SDS011;59936;51.490;5.436;2023-10-09T05:29:01;27.70;;;16.80;;
64641;SDS011;59936;51.490;5.436;2023-10-09T05:31:30;23.00;;;15.60;;
64641;SDS011;59936;51.490;5.436;2023-10-09T05:33:58;29.30;;;17.30;;
64641;SDS011;59936;51.490;5.436;2023-10-09T05:36:27;25.00;;;15.80;;
64641;SDS011;59936;51.490;5.436;2023-10-09T05:38:55;25.70;;;17.30;;
64641;SDS011;59936;51.490;5.436;2023-10-09T05:41:24;21.60;;;16.10;;
64641;SDS011;59936;51.490;5.436;2023-10-09T05:43:54;27.20;;;17.00;;
64641;SDS011;59936;51.490;5.436;2023-10-09T05:46:22;25.80;;;16.80;;
64641;SDS011;59936;51.490;5.436;2023-10-09T05:48:51;27.20;;;17.80;;
64641;SDS011;59936;51.490;5.436;2023-10-09T05:51:19;28.20;;;16.90;;
64641;SDS011;59936;51.490;5.436;2023-10-09T05:53:48;25.30;;;17.30;;
64641;SDS011;59936;51.490;5.436;2023-10-09T05:56:17;28.80;;;18.60;;
64641;SDS011;59936;51.490;5.436;2023-10-09T05:58:45;24.70;;;17.50;;
64641;SDS011;59936;51.490;5.436;2023-10-09T06:01:14;25.50;;;16.10;;
64641;SDS011;59936;51.490;5.436;2023-10-09T06:03:42;27.80;;;17.10;;
64641;SDS011;59936;51.490;5.436;2023-10-09T06:06:11;26.30;;;16.10;;
64641;SDS011;59936;51.490;5.436;2023-10-09T06:08:39;29.10;;;16.40;;
64641;SDS011;59936;51.490;5.436;2023-10-09T06:11:08;25.10;;;16.40;;
64641;SDS011;59936;51.490;5.436;2023-10-09T06:13:39;25.80;;;17.25;;
64641;SDS011;59936;51.490;5.436;2023-10-09T06:16:07;22.60;;;17.10;;
64641;SDS011;59936;51.490;5.436;2023-10-09T06:18:36;26.00;;;18.20;;
64641;SDS011;59936;51.490;5.436;2023-10-09T06:21:04;28.90;;;17.30;;
64641;SDS011;59936;51.490;5.436;2023-10-09T06:23:33;25.90;;;18.20;;
64641;SDS011;59936;51.490;5.436;2023-10-09T06:26:02;26.90;;;17.00;;
64641;SDS011;59936;51.490;5.436;2023-10-09T06:28:30;28.50;;;17.70;;
64641;SDS011;59936;51.490;5.436;2023-10-09T06:30:59;26.60;;;18.80;;
64641;SDS011;59936;51.490;5.436;2023-10-09T06:33:27;31.20;;;18.70;;
64641;SDS011;59936;51.490;5.436;2023-10-09T06:35:56;28.30;;;19.50;;
64641;SDS011;59936;51.490;5.436;2023-10-09T06:38:24;23.30;;;16.70;;
64641;SDS011;59936;51.490;5.436;2023-10-09T06:40:53;29.30;;;20.05;;
64641;SDS011;59936;51.490;5.436;2023-10-09T06:43:22;25.30;;;19.10;;
64641;SDS011;59936;51.490;5.436;2023-10-09T06:45:53;26.70;;;17.20;;
64641;SDS011;59936;51.490;5.436;2023-10-09T06:48:26;24.40;;;15.00;;
64641;SDS011;59936;51.490;5.436;2023-10-09T06:50:56;23.70;;;17.20;;
64641;SDS011;59936;51.490;5.436;2023-10-09T06:53:25;24.30;;;16.40;;
64641;SDS011;59936;51.490;5.436;2023-10-09T06:55:54;25.20;;;18.90;;
64641;SDS011;59936;51.490;5.436;2023-10-09T06:58:22;29.80;;;19.70;;
64641;SDS011;59936;51.490;5.436;2023-10-09T07:00:51;26.90;;;19.10;;
64641;SDS011;59936;51.490;5.436;2023-10-09T07:03:22;24.10;;;17.90;;
64641;SDS011;59936;51.490;5.436;2023-10-09T07:05:50;30.80;;;18.10;;
64641;SDS011;59936;51.490;5.436;2023-10-09T07:08:19;25.50;;;17.50;;
64641;SDS011;59936;51.490;5.436;2023-10-09T07:10:47;25.10;;;17.50;;
64641;SDS011;59936;51.490;5.436;2023-10-09T07:13:16;26.30;;;18.10;;
64641;SDS011;59936;51.490;5.436;2023-10-09T07:15:44;26.00;;;17.10;;
64641;SDS011;59936;51.490;5.436;2023-10-09T07:18:13;27.60;;;17.30;;
64641;SDS011;59936;51.490;5.436;2023-10-09T07:20:41;31.10;;;18.00;;
64641;SDS011;59936;51.490;5.436;2023-10-09T07:23:10;28.70;;;17.60;;
64641;SDS011;59936;51.490;5.436;2023-10-09T07:25:39;28.50;;;17.60;;
64641;SDS011;59936;51.490;5.436;2023-10-09T07:28:10;28.40;;;18.20;;
64641;SDS011;59936;51.490;5.436;2023-10-09T07:30:39;30.20;;;17.20;;
64641;SDS011;59936;51.490;5.436;2023-10-09T07:33:08;25.50;;;17.30;;
64641;SDS011;59936;51.490;5.436;2023-10-09T07:35:37;25.60;;;18.45;;
64641;SDS011;59936;51.490;5.436;2023-10-09T07:38:07;23.40;;;16.10;;
64641;SDS011;59936;51.490;5.436;2023-10-09T07:40:36;29.30;;;17.10;;
64641;SDS011;59936;51.490;5.436;2023-10-09T07:43:07;27.10;;;16.50;;
64641;SDS011;59936;51.490;5.436;2023-10-09T07:45:35;25.90;;;15.60;;
64641;SDS011;59936;51.490;5.436;2023-10-09T07:48:04;28.10;;;16.30;;
64641;SDS011;59936;51.490;5.436;2023-10-09T07:50:37;25.20;;;16.90;;
64641;SDS011;59936;51.490;5.436;2023-10-09T07:53:06;29.65;;;17.40;;
64641;SDS011;59936;51.490;5.436;2023-10-09T07:55:38;25.95;;;18.15;;
64641;SDS011;59936;51.490;5.436;2023-10-09T07:58:07;26.20;;;18.70;;
64641;SDS011;59936;51.490;5.436;2023-10-09T08:00:42;25.02;;;18.58;;
64641;SDS011;59936;51.490;5.436;2023-10-09T08:03:15;27.80;;;18.70;;
64641;SDS011;59936;51.490;5.436;2023-10-09T08:05:52;32.10;;;18.60;;
64641;SDS011;59936;51.490;5.436;2023-10-09T08:08:24;36.80;;;19.50;;
64641;SDS011;59936;51.490;5.436;2023-10-09T08:10:57;29.20;;;18.20;;
64641;SDS011;59936;51.490;5.436;2023-10-09T08:13:30;33.00;;;19.00;;
64641;SDS011;59936;51.490;5.436;2023-10-09T08:15:58;23.40;;;17.40;;
64641;SDS011;59936;51.490;5.436;2023-10-09T08:18:27;26.50;;;17.80;;
64641;SDS011;59936;51.490;5.436;2023-10-09T08:20:55;25.00;;;18.70;;
64641;SDS011;59936;51.490;5.436;2023-10-09T08:23:24;26.60;;;18.10;;
64641;SDS011;59936;51.490;5.436;2023-10-09T08:25:57;28.30;;;17.30;;
64641;SDS011;59936;51.490;5.436;2023-10-09T08:28:30;26.60;;;17.00;;
64641;SDS011;59936;51.490;5.436;2023-10-09T08:30:58;27.40;;;17.50;;
64641;SDS011;59936;51.490;5.436;2023-10-09T08:33:27;28.50;;;19.00;;
64641;SDS011;59936;51.490;5.436;2023-10-09T08:35:56;26.20;;;17.70;;
64641;SDS011;59936;51.490;5.436;2023-10-09T08:38:25;29.10;;;18.70;;
64641;SDS011;59936;51.490;5.436;2023-10-09T08:40:53;25.70;;;18.80;;
64641;SDS011;59936;51.490;5.436;2023-10-09T08:43:22;23.50;;;18.50;;
64641;SDS011;59936;51.490;5.436;2023-10-09T08:45:54;30.00;;;19.00;;
64641;SDS011;59936;51.490;5.436;2023-10-09T08:48:25;25.90;;;17.80;;
64641;SDS011;59936;51.490;5.436;2023-10-09T08:50:53;25.10;;;18.20;;
64641;SDS011;59936;51.490;5.436;2023-10-09T08:53:24;29.70;;;20.00;;
64641;SDS011;59936;51.490;5.436;2023-10-09T08:55:52;31.10;;;19.50;;
64641;SDS011;59936;51.490;5.436;2023-10-09T08:58:21;23.60;;;18.50;;
64641;SDS011;59936;51.490;5.436;2023-10-09T09:00:52;28.90;;;19.90;;
64641;SDS011;59936;51.490;5.436;2023-10-09T09:03:21;28.50;;;19.00;;
64641;SDS011;59936;51.490;5.436;2023-10-09T09:06:00;25.70;;;18.00;;
64641;SDS011;59936;51.490;5.436;2023-10-09T09:08:31;26.80;;;18.30;;
64641;SDS011;59936;51.490;5.436;2023-10-09T09:11:02;24.00;;;17.90;;
64641;SDS011;59936;51.490;5.436;2023-10-09T09:13:35;21.70;;;16.70;;
64641;SDS011;59936;51.490;5.436;2023-10-09T09:16:04;30.90;;;17.80;;
64641;SDS011;59936;51.490;5.436;2023-10-09T09:18:33;26.00;;;18.30;;
64641;SDS011;59936;51.490;5.436;2023-10-09T09:21:17;31.75;;;19.20;;
64641;SDS011;59936;51.490;5.436;2023-10-09T09:23:53;23.60;;;18.40;;
64641;SDS011;59936;51.490;5.436;2023-10-09T09:26:34;31.00;;;19.50;;
64641;SDS011;59936;51.490;5.436;2023-10-09T09:29:06;26.60;;;19.00;;
64641;SDS011;59936;51.490;5.436;2023-10-09T09:31:35;28.50;;;18.40;;
64641;SDS011;59936;51.490;5.436;2023-10-09T09:34:06;27.90;;;17.20;;
64641;SDS011;59936;51.490;5.436;2023-10-09T09:36:36;25.80;;;17.20;;
64641;SDS011;59936;51.490;5.436;2023-10-09T09:39:05;29.90;;;19.70;;
64641;SDS011;59936;51.490;5.436;2023-10-09T09:41:33;31.50;;;20.00;;
64641;SDS011;59936;51.490;5.436;2023-10-09T09:44:04;34.50;;;19.50;;
64641;SDS011;59936;51.490;5.436;2023-10-09T09:46:33;23.60;;;18.00;;
64641;SDS011;59936;51.490;5.436;2023-10-09T09:49:06;24.50;;;17.60;;
64641;SDS011;59936;51.490;5.436;2023-10-09T09:51:34;30.00;;;19.20;;
64641;SDS011;59936;51.490;5.436;2023-10-09T09:54:03;29.00;;;19.30;;
64641;SDS011;59936;51.490;5.436;2023-10-09T09:56:32;26.90;;;19.20;;
64641;SDS011;59936;51.490;5.436;2023-10-09T09:59:05;26.10;;;19.10;;
64641;SDS011;59936;51.490;5.436;2023-10-09T10:01:37;23.20;;;17.20;;
64641;SDS011;59936;51.490;5.436;2023-10-09T10:04:07;30.30;;;18.20;;
64641;SDS011;59936;51.490;5.436;2023-10-09T10:06:41;26.40;;;18.40;;
64641;SDS011;59936;51.490;5.436;2023-10-09T10:12:03;22.00;;;13.10;;
64641;SDS011;59936;51.490;5.436;2023-10-09T10:14:52;26.10;;;17.70;;
64641;SDS011;59936;51.490;5.436;2023-10-09T10:17:22;25.40;;;18.50;;
64641;SDS011;59936;51.490;5.436;2023-10-09T10:22:26;30.90;;;17.90;;
64641;SDS011;59936;51.490;5.436;2023-10-09T10:24:56;28.40;;;18.60;;
64641;SDS011;59936;51.490;5.436;2023-10-09T10:27:25;25.20;;;19.40;;
64641;SDS011;59936;51.490;5.436;2023-10-09T10:35:26;29.50;;;19.70;;
64641;SDS011;59936;51.490;5.436;2023-10-09T10:37:55;23.40;;;17.80;;
64641;SDS011;59936;51.490;5.436;2023-10-09T10:40:24;25.70;;;17.70;;
64641;SDS011;59936;51.490;5.436;2023-10-09T10:42:52;28.50;;;19.60;;
64641;SDS011;59936;51.490;5.436;2023-10-09T10:45:21;26.00;;;20.50;;
64641;SDS011;59936;51.490;5.436;2023-10-09T10:47:50;30.55;;;20.15;;
64641;SDS011;59936;51.490;5.436;2023-10-09T10:50:18;31.70;;;21.20;;
64641;SDS011;59936;51.490;5.436;2023-10-09T10:52:48;25.60;;;15.30;;
64641;SDS011;59936;51.490;5.436;2023-10-09T10:55:16;32.90;;;21.20;;
64641;SDS011;59936;51.490;5.436;2023-10-09T10:57:45;27.70;;;18.60;;
64641;SDS011;59936;51.490;5.436;2023-10-09T11:00:14;29.20;;;20.20;;
64641;SDS011;59936;51.490;5.436;2023-10-09T11:02:45;21.60;;;15.20;;
64641;SDS011;59936;51.490;5.436;2023-10-09T11:05:14;36.50;;;20.90;;
64641;SDS011;59936;51.490;5.436;2023-10-09T11:07:43;31.10;;;21.70;;
64641;SDS011;59936;51.490;5.436;2023-10-09T11:10:21;29.10;;;21.20;;
64641;SDS011;59936;51.490;5.436;2023-10-09T11:12:53;28.30;;;21.40;;
64641;SDS011;59936;51.490;5.436;2023-10-09T11:15:31;30.80;;;21.50;;
64641;SDS011;59936;51.490;5.436;2023-10-09T11:18:06;33.10;;;20.50;;
64641;SDS011;59936;51.490;5.436;2023-10-09T11:20:39;28.00;;;20.10;;
64641;SDS011;59936;51.490;5.436;2023-10-09T11:23:09;28.70;;;19.00;;
64641;SDS011;59936;51.490;5.436;2023-10-09T11:25:38;29.70;;;21.30;;
64641;SDS011;59936;51.490;5.436;2023-10-09T11:28:18;31.00;;;21.00;;
64641;SDS011;59936;51.490;5.436;2023-10-09T11:30:50;29.10;;;20.50;;
64641;SDS011;59936;51.490;5.436;2023-10-09T11:33:18;26.40;;;18.60;;
64641;SDS011;59936;51.490;5.436;2023-10-09T11:35:54;32.50;;;20.60;;
64641;SDS011;59936;51.490;5.436;2023-10-09T11:38:24;28.90;;;20.00;;
64641;SDS011;59936;51.490;5.436;2023-10-09T11:40:53;24.00;;;18.40;;
64641;SDS011;59936;51.490;5.436;2023-10-09T11:43:21;25.40;;;17.70;;
64641;SDS011;59936;51.490;5.436;2023-10-09T11:45:50;21.80;;;16.80;;
64641;SDS011;59936;51.490;5.436;2023-10-09T11:48:19;20.90;;;13.20;;
64641;SDS011;59936;51.490;5.436;2023-10-09T11:50:51;27.50;;;17.50;;
64641;SDS011;59936;51.490;5.436;2023-10-09T11:53:21;25.80;;;17.40;;
64641;SDS011;59936;51.490;5.436;2023-10-09T11:55:50;25.85;;;16.50;;
64641;SDS011;59936;51.490;5.436;2023-10-09T11:58:19;26.70;;;16.30;;
64641;SDS011;59936;51.490;5.436;2023-10-09T12:00:50;20.80;;;15.10;;
64641;SDS011;59936;51.490;5.436;2023-10-09T12:03:23;17.00;;;13.20;;
64641;SDS011;59936;51.490;5.436;2023-10-09T12:06:00;21.60;;;14.90;;
64641;SDS011;59936;51.490;5.436;2023-10-09T12:08:31;16.80;;;13.20;;
64641;SDS011;59936;51.490;5.436;2023-10-09T12:11:01;20.00;;;13.40;;
64641;SDS011;59936;51.490;5.436;2023-10-09T12:13:32;15.80;;;11.20;;
64641;SDS011;59936;51.490;5.436;2023-10-09T12:16:01;19.40;;;12.10;;
64641;SDS011;59936;51.490;5.436;2023-10-09T12:18:30;19.80;;;12.70;;
64641;SDS011;59936;51.490;5.436;2023-10-09T12:20:58;16.40;;;11.80;;
64641;SDS011;59936;51.490;5.436;2023-10-09T12:23:27;18.40;;;12.30;;
64641;SDS011;59936;51.490;5.436;2023-10-09T12:25:56;16.50;;;11.50;;
64641;SDS011;59936;51.490;5.436;2023-10-09T12:28:24;16.30;;;11.70;;
64641;SDS011;59936;51.490;5.436;2023-10-09T12:30:53;19.00;;;11.30;;
64641;SDS011;59936;51.490;5.436;2023-10-09T12:33:22;16.00;;;11.00;;
64641;SDS011;59936;51.490;5.436;2023-10-09T12:35:50;16.30;;;10.60;;
64641;SDS011;59936;51.490;5.436;2023-10-09T12:38:19;17.60;;;11.10;;
64641;SDS011;59936;51.490;5.436;2023-10-09T12:40:47;18.20;;;10.80;;
64641;SDS011;59936;51.490;5.436;2023-10-09T12:43:17;15.00;;;10.20;;
64641;SDS011;59936;51.490;5.436;2023-10-09T12:45:46;17.05;;;10.05;;
64641;SDS011;59936;51.490;5.436;2023-10-09T12:48:15;17.30;;;10.20;;
64641;SDS011;59936;51.490;5.436;2023-10-09T12:50:43;16.10;;;10.20;;
64641;SDS011;59936;51.490;5.436;2023-10-09T12:53:12;19.50;;;9.90;;
64641;SDS011;59936;51.490;5.436;2023-10-09T12:55:41;17.70;;;10.30;;
64641;SDS011;59936;51.490;5.436;2023-10-09T12:58:10;16.40;;;9.50;;
64641;SDS011;59936;51.490;5.436;2023-10-09T13:00:40;13.90;;;9.50;;
64641;SDS011;59936;51.490;5.436;2023-10-09T13:03:10;15.10;;;8.50;;
64641;SDS011;59936;51.490;5.436;2023-10-09T13:05:39;11.70;;;7.80;;
64641;SDS011;59936;51.490;5.436;2023-10-09T13:08:08;16.95;;;9.20;;
64641;SDS011;59936;51.490;5.436;2023-10-09T13:10:36;13.20;;;7.60;;
64641;SDS011;59936;51.490;5.436;2023-10-09T13:13:05;16.20;;;8.60;;
64641;SDS011;59936;51.490;5.436;2023-10-09T13:15:33;13.40;;;9.00;;
64641;SDS011;59936;51.490;5.436;2023-10-09T13:18:02;12.90;;;8.70;;
64641;SDS011;59936;51.490;5.436;2023-10-09T13:20:30;13.50;;;7.50;;
64641;SDS011;59936;51.490;5.436;2023-10-09T13:22:59;12.20;;;8.10;;
64641;SDS011;59936;51.490;5.436;2023-10-09T13:25:28;13.40;;;7.90;;
64641;SDS011;59936;51.490;5.436;2023-10-09T13:27:56;15.10;;;8.90;;
64641;SDS011;59936;51.490;5.436;2023-10-09T13:30:25;14.00;;;8.50;;
64641;SDS011;59936;51.490;5.436;2023-10-09T13:32:53;15.90;;;8.30;;
64641;SDS011;59936;51.490;5.436;2023-10-09T13:35:22;13.00;;;8.40;;
64641;SDS011;59936;51.490;5.436;2023-10-09T13:37:50;13.20;;;8.50;;
64641;SDS011;59936;51.490;5.436;2023-10-09T13:40:22;15.40;;;8.20;;
64641;SDS011;59936;51.490;5.436;2023-10-09T13:42:51;15.30;;;8.40;;
64641;SDS011;59936;51.490;5.436;2023-10-09T13:45:19;13.50;;;8.70;;
64641;SDS011;59936;51.490;5.436;2023-10-09T13:47:48;14.30;;;8.10;;
64641;SDS011;59936;51.490;5.436;2023-10-09T13:50:16;13.90;;;8.70;;
64641;SDS011;59936;51.490;5.436;2023-10-09T13:52:45;14.80;;;8.80;;
64641;SDS011;59936;51.490;5.436;2023-10-09T13:55:14;15.60;;;8.40;;
64641;SDS011;59936;51.490;5.436;2023-10-09T13:57:43;12.45;;;7.15;;
64641;SDS011;59936;51.490;5.436;2023-10-09T14:00:12;12.80;;;7.30;;
64641;SDS011;59936;51.490;5.436;2023-10-09T14:02:43;10.10;;;7.60;;
64641;SDS011;59936;51.490;5.436;2023-10-09T14:05:12;14.40;;;8.30;;
64641;SDS011;59936;51.490;5.436;2023-10-09T14:07:41;15.00;;;6.30;;
64641;SDS011;59936;51.490;5.436;2023-10-09T14:10:09;14.00;;;9.10;;
64641;SDS011;59936;51.490;5.436;2023-10-09T14:12:44;14.50;;;8.20;;
64641;SDS011;59936;51.490;5.436;2023-10-09T14:15:12;10.25;;;7.30;;
64641;SDS011;59936;51.490;5.436;2023-10-09T14:17:41;14.40;;;7.00;;
64641;SDS011;59936;51.490;5.436;2023-10-09T14:20:10;9.70;;;7.00;;
64641;SDS011;59936;51.490;5.436;2023-10-09T14:22:39;11.40;;;6.40;;
64641;SDS011;59936;51.490;5.436;2023-10-09T14:25:07;13.30;;;6.60;;
64641;SDS011;59936;51.490;5.436;2023-10-09T14:27:36;10.20;;;5.80;;
64641;SDS011;59936;51.490;5.436;2023-10-09T14:30:05;7.90;;;6.20;;
64641;SDS011;59936;51.490;5.436;2023-10-09T14:32:34;8.70;;;6.40;;
64641;SDS011;59936;51.490;5.436;2023-10-09T14:35:03;8.90;;;5.90;;
64641;SDS011;59936;51.490;5.436;2023-10-09T14:37:32;8.80;;;6.30;;
64641;SDS011;59936;51.490;5.436;2023-10-09T14:40:00;9.90;;;5.80;;
64641;SDS011;59936;51.490;5.436;2023-10-09T14:42:29;11.60;;;5.40;;
64641;SDS011;59936;51.490;5.436;2023-10-09T14:44:58;11.65;;;5.90;;
64641;SDS011;59936;51.490;5.436;2023-10-09T14:47:26;7.80;;;5.60;;
64641;SDS011;59936;51.490;5.436;2023-10-09T14:49:55;11.40;;;5.90;;